createdAt,value
2022-08-24T00:01:19.787Z,63.54
2022-08-24T00:03:54.186Z,63.44
2022-08-24T00:06:28.209Z,63.42
2022-08-24T00:09:00.550Z,63.64
2022-08-24T00:11:28.950Z,63.75
2022-08-24T00:13:59.685Z,63.95
2022-08-24T00:16:30.412Z,64.03
2022-08-24T00:19:03.763Z,63.87
2022-08-24T00:21:31.800Z,63.99
2022-08-24T00:24:03.147Z,64.03
2022-08-24T00:26:35.392Z,64.20
2022-08-24T00:29:07.694Z,64.28
2022-08-24T00:31:39.074Z,64.35
2022-08-24T00:34:07.213Z,64.16
2022-08-24T00:36:38.286Z,64.43
2022-08-24T00:39:09.832Z,64.47
2022-08-24T00:41:45.021Z,64.49
2022-08-24T00:44:16.980Z,64.60
2022-08-24T00:47:07.840Z,64.81
2022-08-24T00:49:49.905Z,64.67
2022-08-24T00:52:41.594Z,64.63
2022-08-24T00:55:36.155Z,64.79
2022-08-24T00:58:17.129Z,64.92
2022-08-24T01:01:03.722Z,64.92
2022-08-24T01:03:35.996Z,65.07
2022-08-24T01:06:07.280Z,65.14
2022-08-24T01:08:37.034Z,65.25
2022-08-24T01:11:17.478Z,65.17
2022-08-24T01:13:50.596Z,65.33
2022-08-24T01:16:41.803Z,65.30
2022-08-24T01:19:39.782Z,65.37
2022-08-24T01:22:38.279Z,65.44
2022-08-24T01:25:09.683Z,65.66
2022-08-24T01:27:41.930Z,65.57
2022-08-24T01:30:15.243Z,65.56
2022-08-24T01:32:56.234Z,65.58
2022-08-24T01:35:30.148Z,65.76
2022-08-24T01:38:06.048Z,65.80
2022-08-24T01:40:41.551Z,65.68
2022-08-24T01:43:13.739Z,65.79
2022-08-24T01:45:45.080Z,65.93
2022-08-24T01:48:22.851Z,65.99
2022-08-24T01:50:54.049Z,66.13
2022-08-24T01:53:21.850Z,66.11
2022-08-24T01:55:51.161Z,66.07
2022-08-24T01:58:22.003Z,66.22
2022-08-24T02:00:52.267Z,66.19
2022-08-24T02:03:27.658Z,66.35
2022-08-24T02:06:02.675Z,66.49
2022-08-24T02:08:30.356Z,66.54
2022-08-24T02:11:01.069Z,66.65
2022-08-24T02:13:31.308Z,66.54
2022-08-24T02:16:02.138Z,66.73
2022-08-24T02:18:32.025Z,66.55
2022-08-24T02:21:03.709Z,66.76
2022-08-24T02:23:31.664Z,66.86
2022-08-24T02:26:04.094Z,66.68
2022-08-24T02:28:35.867Z,66.80
2022-08-24T02:31:09.375Z,66.88
2022-08-24T02:33:41.417Z,67.01
2022-08-24T02:36:25.285Z,66.94
2022-08-24T02:38:59.162Z,67.08
2022-08-24T02:41:30.542Z,67.21
2022-08-24T02:44:03.231Z,67.14
2022-08-24T02:46:34.610Z,67.39
2022-08-24T02:49:11.406Z,67.45
2022-08-24T02:51:47.389Z,67.47
2022-08-24T02:54:18.856Z,67.48
2022-08-24T02:56:50.579Z,67.64
2022-08-24T02:59:22.457Z,67.69
2022-08-24T03:01:52.962Z,67.67
2022-08-24T03:04:22.470Z,67.74
2022-08-24T03:06:53.177Z,67.87
2022-08-24T03:09:23.541Z,68.01
2022-08-24T03:11:55.367Z,68.02
2022-08-24T03:14:23.343Z,68.12
2022-08-24T03:16:52.776Z,68.20
2022-08-24T03:19:24.134Z,68.10
2022-08-24T03:21:56.658Z,68.14
2022-08-24T03:24:26.813Z,68.36
2022-08-24T03:26:57.929Z,68.34
2022-08-24T03:29:33.615Z,68.49
2022-08-24T03:32:08.011Z,68.40
2022-08-24T03:34:39.392Z,68.53
2022-08-24T03:37:10.503Z,68.58
2022-08-24T03:39:41.543Z,68.51
2022-08-24T03:42:09.611Z,68.69
2022-08-24T03:44:39.513Z,68.77
2022-08-24T03:47:11.080Z,68.79
2022-08-24T03:49:41.201Z,68.84
2022-08-24T03:52:11.420Z,68.80
2022-08-24T03:54:39.676Z,68.99
2022-08-24T03:57:11.208Z,68.98
2022-08-24T03:59:46.662Z,69.10
2022-08-24T04:02:21.388Z,69.16
2022-08-24T04:04:51.359Z,69.21
2022-08-24T04:07:22.509Z,69.36
2022-08-24T04:09:50.469Z,69.32
2022-08-24T04:12:20.197Z,69.36
2022-08-24T04:14:57.032Z,69.48
2022-08-24T04:17:24.896Z,69.55
2022-08-24T04:19:58.485Z,69.61
2022-08-24T04:22:29.707Z,69.54
2022-08-24T04:25:00.793Z,69.65
2022-08-24T04:27:28.634Z,69.69
2022-08-24T04:29:56.955Z,69.68
2022-08-24T04:32:25.975Z,69.82
2022-08-24T04:34:53.915Z,69.75
2022-08-24T04:37:28.464Z,69.86
2022-08-24T04:39:57.348Z,69.90
2022-08-24T04:42:27.827Z,69.90
2022-08-24T04:44:57.056Z,70.03
2022-08-24T04:47:24.780Z,70.04
2022-08-24T04:49:52.899Z,70.06
2022-08-24T04:52:25.585Z,70.14
2022-08-24T04:54:56.786Z,70.21
2022-08-24T04:57:24.777Z,70.16
2022-08-24T04:59:59.253Z,70.18
2022-08-24T05:02:29.338Z,70.29
2022-08-24T05:04:58.713Z,70.31
2022-08-24T05:07:26.614Z,70.29
2022-08-24T05:09:57.913Z,70.50
2022-08-24T05:12:29.174Z,70.48
2022-08-24T05:14:56.934Z,70.45
2022-08-24T05:17:28.968Z,70.47
2022-08-24T05:19:59.440Z,70.63
2022-08-24T05:22:28.423Z,70.59
2022-08-24T05:24:59.969Z,70.68
2022-08-24T05:27:27.735Z,70.52
2022-08-24T05:29:57.633Z,70.71
2022-08-24T05:32:27.355Z,70.72
2022-08-24T05:34:55.545Z,70.66
2022-08-24T05:37:25.411Z,70.75
2022-08-24T05:39:53.206Z,70.80
2022-08-24T05:42:25.000Z,70.67
2022-08-24T05:44:52.781Z,70.81
2022-08-24T05:47:20.559Z,70.53
2022-08-24T05:49:55.997Z,70.78
2022-08-24T05:52:27.574Z,70.72
2022-08-24T05:54:59.949Z,70.92
2022-08-24T05:57:33.599Z,70.91
2022-08-24T06:00:02.238Z,70.84
2022-08-24T06:02:32.117Z,70.87
2022-08-24T06:05:06.160Z,70.97
2022-08-24T06:07:37.185Z,71.07
2022-08-24T06:10:34.966Z,71.29
2022-08-24T06:13:01.093Z,71.07
2022-08-24T06:15:30.817Z,70.79
2022-08-24T06:18:00.590Z,70.83
2022-08-24T06:20:29.202Z,70.80
2022-08-24T06:22:57.155Z,70.77
2022-08-24T06:25:45.152Z,70.79
2022-08-24T06:28:15.051Z,71.09
2022-08-24T06:30:46.809Z,70.80
2022-08-24T06:33:14.905Z,70.94
2022-08-24T06:35:47.041Z,70.97
2022-08-24T06:38:17.397Z,70.96
2022-08-24T06:40:53.885Z,71.04
2022-08-24T06:43:21.812Z,70.94
2022-08-24T06:45:49.627Z,70.94
2022-08-24T06:48:21.411Z,70.86
2022-08-24T06:50:53.375Z,70.94
2022-08-24T06:53:22.139Z,71.05
2022-08-24T06:55:56.979Z,71.08
2022-08-24T06:58:30.172Z,70.85
2022-08-24T07:01:08.595Z,70.68
2022-08-24T07:03:36.411Z,70.89
2022-08-24T07:06:08.538Z,70.71
2022-08-24T07:08:42.353Z,70.75
2022-08-24T07:11:15.232Z,70.85
2022-08-24T07:13:49.201Z,70.68
2022-08-24T07:16:21.693Z,70.78
2022-08-24T07:18:52.560Z,69.93
2022-08-24T07:21:26.944Z,69.52
2022-08-24T07:24:00.225Z,69.14
2022-08-24T07:26:32.093Z,69.07
2022-08-24T07:29:43.626Z,68.51
2022-08-24T07:32:06.091Z,68.50
2022-08-24T07:34:33.895Z,68.14
2022-08-24T07:37:07.929Z,67.83
2022-08-24T07:39:35.769Z,67.49
2022-08-24T07:42:13.776Z,67.35
2022-08-24T07:44:44.267Z,67.05
2022-08-24T07:47:36.606Z,66.99
2022-08-24T07:50:01.360Z,65.84
2022-08-24T07:52:29.210Z,65.81
2022-08-24T07:54:57.667Z,65.46
2022-08-24T07:57:26.173Z,65.18
2022-08-24T08:00:06.935Z,64.41
2022-08-24T08:02:35.120Z,64.27
2022-08-24T08:05:09.106Z,63.74
2022-08-24T08:07:37.382Z,63.32
2022-08-24T08:10:10.391Z,62.89
2022-08-24T08:12:39.302Z,62.04
2022-08-24T08:15:11.457Z,61.43
2022-08-24T08:17:41.285Z,61.19
2022-08-24T08:20:13.668Z,60.70
2022-08-24T08:23:10.827Z,59.66
2022-08-24T08:25:40.355Z,59.53
2022-08-24T08:28:25.350Z,59.40
2022-08-24T08:31:00.178Z,58.16
2022-08-24T08:33:32.346Z,57.59
2022-08-24T08:36:12.028Z,57.08
2022-08-24T08:38:43.426Z,56.64
2022-08-24T08:41:34.308Z,56.34
2022-08-24T08:44:34.992Z,55.45
2022-08-24T08:47:12.463Z,55.08
2022-08-24T08:50:08.328Z,54.83
2022-08-24T08:52:51.699Z,53.69
2022-08-24T08:55:46.483Z,53.39
2022-08-24T08:58:51.128Z,52.78
2022-08-24T09:01:57.009Z,52.28
2022-08-24T09:04:55.937Z,51.08
2022-08-24T09:08:15.377Z,50.85
2022-08-24T09:11:08.024Z,50.44
2022-08-24T09:14:05.438Z,49.74
2022-08-24T09:16:56.388Z,49.25
2022-08-24T09:20:06.639Z,48.98
2022-08-24T09:22:43.635Z,48.15
2022-08-24T09:25:35.965Z,48.35
2022-08-24T09:28:35.711Z,47.68
2022-08-24T09:31:12.718Z,47.15
2022-08-24T09:33:44.944Z,46.78
2022-08-24T09:36:42.272Z,46.45
2022-08-24T09:39:19.260Z,46.06
2022-08-24T09:42:30.043Z,45.95
2022-08-24T09:45:15.229Z,45.50
2022-08-24T09:47:48.878Z,44.99
2022-08-24T09:50:41.377Z,44.48
2022-08-24T09:53:15.202Z,43.89
2022-08-24T09:56:29.272Z,43.64
2022-08-24T09:59:34.506Z,43.70
2022-08-24T10:02:25.003Z,43.38
2022-08-24T10:05:18.097Z,42.70
2022-08-24T10:08:39.094Z,42.68
2022-08-24T10:11:33.693Z,42.48
2022-08-24T10:14:36.418Z,42.02
2022-08-24T10:17:06.793Z,41.83
2022-08-24T10:19:49.901Z,41.95
2022-08-24T10:22:46.654Z,41.60
2022-08-24T10:25:39.321Z,41.39
2022-08-24T10:28:43.266Z,41.03
2022-08-24T10:31:23.305Z,40.92
2022-08-24T10:34:21.597Z,40.80
2022-08-24T10:37:25.142Z,40.67
2022-08-24T10:40:09.622Z,40.66
2022-08-24T10:43:04.591Z,40.55
2022-08-24T10:45:35.462Z,40.83
2022-08-24T10:48:46.208Z,40.80
2022-08-24T10:51:52.120Z,40.71
2022-08-24T10:54:24.774Z,40.63
2022-08-24T10:57:15.045Z,40.45
2022-08-24T11:00:18.258Z,40.65
2022-08-24T11:03:12.349Z,40.89
2022-08-24T11:05:56.586Z,40.68
2022-08-24T11:08:29.642Z,40.74
2022-08-24T11:11:10.783Z,40.98
2022-08-24T11:13:59.264Z,41.05
2022-08-24T11:16:47.103Z,41.07
2022-08-24T11:19:34.565Z,40.89
2022-08-24T11:22:31.096Z,40.98
2022-08-24T11:25:19.786Z,41.06
2022-08-24T11:27:57.312Z,41.19
2022-08-24T11:30:31.516Z,41.43
2022-08-24T11:33:06.306Z,41.25
2022-08-24T11:35:34.083Z,41.47
2022-08-24T11:38:26.308Z,41.78
2022-08-24T11:41:03.852Z,41.77
2022-08-24T11:43:48.339Z,41.77
2022-08-24T11:46:50.546Z,41.96
2022-08-24T11:49:33.939Z,41.89
2022-08-24T11:52:34.679Z,42.08
2022-08-24T11:55:14.311Z,42.04
2022-08-24T11:58:03.166Z,42.12
2022-08-24T12:00:46.058Z,42.26
2022-08-24T12:03:32.689Z,42.43
2022-08-24T12:06:09.747Z,42.42
2022-08-24T12:08:54.478Z,42.48
2022-08-24T12:11:55.487Z,42.54
2022-08-24T12:14:40.437Z,42.60
2022-08-24T12:17:24.445Z,42.77
2022-08-24T12:20:02.405Z,42.53
2022-08-24T12:22:32.576Z,42.54
2022-08-24T12:25:24.849Z,42.74
2022-08-24T12:27:56.013Z,42.66
2022-08-24T12:30:25.406Z,42.55
2022-08-24T12:32:59.376Z,42.62
2022-08-24T12:35:35.577Z,42.70
2022-08-24T12:38:20.050Z,42.81
2022-08-24T12:41:02.359Z,42.67
2022-08-24T12:43:49.926Z,43.08
2022-08-24T12:46:23.931Z,42.57
2022-08-24T12:48:58.466Z,42.69
2022-08-24T12:51:40.496Z,42.79
2022-08-24T12:54:58.538Z,42.82
2022-08-24T12:58:03.701Z,42.60
2022-08-24T13:00:42.551Z,42.75
2022-08-24T13:03:25.640Z,42.63
2022-08-24T13:05:58.944Z,42.50
2022-08-24T13:08:46.030Z,42.64
2022-08-24T13:11:29.575Z,42.26
2022-08-24T13:13:58.080Z,42.31
2022-08-24T13:16:56.736Z,42.46
2022-08-24T13:19:31.717Z,42.06
2022-08-24T13:22:21.553Z,42.29
2022-08-24T13:25:00.714Z,42.53
2022-08-24T13:27:38.011Z,42.38
2022-08-24T13:30:19.473Z,42.45
2022-08-24T13:33:00.171Z,42.26
2022-08-24T13:35:37.280Z,42.52
2022-08-24T13:38:24.248Z,42.62
2022-08-24T13:41:36.609Z,42.60
2022-08-24T13:44:24.566Z,42.89
2022-08-24T13:47:05.128Z,42.62
2022-08-24T13:50:04.148Z,42.74
2022-08-24T13:52:48.666Z,43.08
2022-08-24T13:55:45.239Z,43.04
2022-08-24T13:58:35.236Z,43.10
2022-08-24T14:01:24.096Z,43.07
2022-08-24T14:03:56.361Z,43.06
2022-08-24T14:07:01.976Z,42.93
2022-08-24T14:09:49.597Z,43.33
2022-08-24T14:12:35.261Z,43.20
2022-08-24T14:15:08.755Z,43.43
2022-08-24T14:17:55.875Z,43.47
2022-08-24T14:20:56.630Z,43.53
2022-08-24T14:23:53.162Z,43.62
2022-08-24T14:26:34.265Z,43.49
2022-08-24T14:29:17.992Z,43.59
2022-08-24T14:32:00.076Z,43.68
2022-08-24T14:35:06.400Z,44.00
2022-08-24T14:38:02.196Z,44.04
2022-08-24T14:40:43.679Z,44.22
2022-08-24T14:43:11.679Z,44.44
2022-08-24T14:46:07.691Z,44.56
2022-08-24T14:48:58.411Z,44.87
2022-08-24T14:52:06.284Z,44.95
2022-08-24T14:54:37.863Z,44.86
2022-08-24T14:57:31.432Z,45.26
2022-08-24T15:00:15.387Z,45.41
2022-08-24T15:02:55.909Z,45.42
2022-08-24T15:05:33.155Z,45.61
2022-08-24T15:08:07.842Z,45.62
2022-08-24T15:10:43.508Z,45.80
2022-08-24T15:13:37.034Z,46.09
2022-08-24T15:16:11.496Z,46.09
2022-08-24T15:18:51.188Z,46.25
2022-08-24T15:21:35.756Z,45.96
2022-08-24T15:24:10.261Z,46.52
2022-08-24T15:27:02.006Z,46.36
2022-08-24T15:29:34.368Z,46.28
2022-08-24T15:32:11.236Z,46.41
2022-08-24T15:34:46.712Z,46.65
2022-08-24T15:37:26.656Z,46.69
2022-08-24T15:39:56.673Z,46.87
2022-08-24T15:42:30.175Z,47.03
2022-08-24T15:45:03.389Z,46.96
2022-08-24T15:47:37.014Z,47.04
2022-08-24T15:50:20.505Z,47.34
2022-08-24T15:53:01.678Z,47.32
2022-08-24T15:55:42.241Z,47.44
2022-08-24T15:58:25.777Z,47.50
2022-08-24T16:01:39.720Z,47.79
2022-08-24T16:04:14.456Z,47.89
2022-08-24T16:06:47.481Z,47.91
2022-08-24T16:09:33.381Z,48.15
2022-08-24T16:12:24.044Z,48.25
2022-08-24T16:15:09.559Z,48.44
2022-08-24T16:17:51.872Z,48.49
2022-08-24T16:20:25.571Z,48.27
2022-08-24T16:23:06.353Z,48.44
2022-08-24T16:25:42.898Z,48.60
2022-08-24T16:28:21.148Z,48.73
2022-08-24T16:30:58.973Z,48.69
2022-08-24T16:33:32.241Z,48.84
2022-08-24T16:36:05.672Z,48.59
2022-08-24T16:38:35.787Z,48.87
2022-08-24T16:41:10.652Z,48.91
2022-08-24T16:43:41.724Z,48.88
2022-08-24T16:46:14.168Z,49.13
2022-08-24T16:48:42.127Z,49.25
2022-08-24T16:51:11.061Z,49.40
2022-08-24T16:53:40.904Z,49.38
2022-08-24T16:56:13.633Z,49.77
2022-08-24T16:58:47.669Z,49.79
2022-08-24T17:01:19.559Z,49.98
2022-08-24T17:03:47.650Z,50.05
2022-08-24T17:06:19.749Z,50.22
2022-08-24T17:08:49.181Z,50.15
2022-08-24T17:11:19.107Z,50.29
2022-08-24T17:13:50.682Z,50.52
2022-08-24T17:16:21.951Z,50.49
2022-08-24T17:18:51.230Z,50.63
2022-08-24T17:21:21.396Z,50.72
2022-08-24T17:23:52.965Z,50.99
2022-08-24T17:26:21.796Z,51.03
2022-08-24T17:28:55.476Z,51.22
2022-08-24T17:31:26.728Z,51.36
2022-08-24T17:33:57.650Z,51.48
2022-08-24T17:36:31.153Z,51.60
2022-08-24T17:39:08.210Z,51.76
2022-08-24T17:41:38.153Z,51.74
2022-08-24T17:44:10.583Z,51.88
2022-08-24T17:46:41.511Z,52.04
2022-08-24T17:49:13.284Z,52.11
2022-08-24T17:51:44.659Z,52.18
2022-08-24T17:54:15.200Z,52.34
2022-08-24T17:56:48.757Z,52.44
2022-08-24T17:59:23.930Z,52.43
2022-08-24T18:01:58.695Z,52.69
2022-08-24T18:04:30.598Z,52.86
2022-08-24T18:07:04.685Z,52.80
2022-08-24T18:09:53.972Z,52.96
2022-08-24T18:12:25.578Z,53.06
2022-08-24T18:14:58.892Z,53.11
2022-08-24T18:17:43.482Z,53.19
2022-08-24T18:20:14.936Z,53.32
2022-08-24T18:22:47.206Z,53.31
2022-08-24T18:25:25.399Z,53.13
2022-08-24T18:27:58.589Z,53.28
2022-08-24T18:30:32.554Z,53.61
2022-08-24T18:33:04.998Z,53.53
2022-08-24T18:35:37.547Z,53.57
2022-08-24T18:38:05.467Z,53.74
2022-08-24T18:40:33.745Z,54.08
2022-08-24T18:43:06.430Z,54.01
2022-08-24T18:45:35.941Z,54.20
2022-08-24T18:48:04.251Z,54.34
2022-08-24T18:50:42.004Z,54.39
2022-08-24T18:53:14.959Z,54.63
2022-08-24T18:55:48.023Z,54.62
2022-08-24T18:58:16.148Z,54.65
2022-08-24T19:00:48.662Z,54.51
2022-08-24T19:03:21.529Z,54.82
2022-08-24T19:05:51.803Z,54.86
2022-08-24T19:08:19.678Z,55.01
2022-08-24T19:10:47.542Z,55.21
2022-08-24T19:13:19.085Z,55.15
2022-08-24T19:15:53.167Z,55.24
2022-08-24T19:18:21.741Z,55.44
2022-08-24T19:20:56.295Z,55.85
2022-08-24T19:23:37.327Z,55.86
2022-08-24T19:26:07.152Z,55.88
2022-08-24T19:28:35.140Z,55.94
2022-08-24T19:31:08.657Z,56.17
2022-08-24T19:33:43.843Z,56.49
2022-08-24T19:36:19.125Z,56.44
2022-08-24T19:38:48.193Z,56.36
2022-08-24T19:41:19.892Z,56.71
2022-08-24T19:44:23.492Z,56.99
2022-08-24T19:46:59.827Z,57.18
2022-08-24T19:49:28.038Z,56.93
2022-08-24T19:51:55.868Z,56.71
2022-08-24T19:54:25.900Z,57.40
2022-08-24T19:56:55.412Z,57.35
2022-08-24T19:59:40.826Z,57.28
2022-08-24T20:02:08.815Z,57.53
2022-08-24T20:04:37.671Z,57.56
2022-08-24T20:07:06.116Z,57.84
2022-08-24T20:09:33.938Z,57.87
2022-08-24T20:12:01.689Z,57.76
2022-08-24T20:14:37.306Z,58.01
2022-08-24T20:17:09.650Z,57.99
2022-08-24T20:19:40.478Z,58.16
2022-08-24T20:22:13.113Z,58.25
2022-08-24T20:24:45.654Z,58.26
2022-08-24T20:27:26.609Z,58.49
2022-08-24T20:29:59.025Z,58.57
2022-08-24T20:32:30.014Z,58.70
2022-08-24T20:35:02.637Z,58.65
2022-08-24T20:37:35.888Z,58.65
2022-08-24T20:40:06.540Z,59.09
2022-08-24T20:42:35.176Z,59.11
2022-08-24T20:45:08.530Z,58.91
2022-08-24T20:47:51.704Z,59.29
2022-08-24T20:50:26.357Z,59.25
2022-08-24T20:52:54.339Z,59.47
2022-08-24T20:55:24.894Z,59.30
2022-08-24T20:57:57.126Z,59.49
2022-08-24T21:00:28.123Z,59.37
2022-08-24T21:02:56.318Z,59.58
2022-08-24T21:05:24.706Z,59.69
2022-08-24T21:07:54.736Z,59.76
2022-08-24T21:10:26.805Z,59.75
2022-08-24T21:12:55.634Z,60.10
2022-08-24T21:15:23.702Z,59.99
2022-08-24T21:17:52.254Z,60.08
2022-08-24T21:20:21.279Z,60.09
2022-08-24T21:22:50.032Z,60.20
2022-08-24T21:25:18.502Z,60.31
2022-08-24T21:27:49.160Z,60.32
2022-08-24T21:30:21.336Z,60.22
2022-08-24T21:33:08.843Z,60.46
2022-08-24T21:35:41.099Z,60.66
2022-08-24T21:38:10.103Z,60.74
2022-08-24T21:40:38.409Z,60.77
2022-08-24T21:43:14.785Z,60.65
2022-08-24T21:45:51.473Z,60.96
2022-08-24T21:48:20.017Z,61.08
2022-08-24T21:50:49.057Z,61.27
2022-08-24T21:53:17.489Z,61.25
2022-08-24T21:55:46.172Z,61.14
2022-08-24T21:58:14.156Z,61.24
2022-08-24T22:00:44.090Z,61.28
2022-08-24T22:03:12.720Z,61.62
2022-08-24T22:05:40.984Z,61.60
2022-08-24T22:08:09.476Z,61.45
2022-08-24T22:10:38.371Z,61.84
2022-08-24T22:13:07.673Z,61.64
2022-08-24T22:15:37.463Z,61.99
2022-08-24T22:18:05.537Z,61.91
2022-08-24T22:20:33.626Z,61.86
2022-08-24T22:23:01.623Z,62.08
2022-08-24T22:25:30.420Z,61.90
2022-08-24T22:27:58.696Z,61.99
2022-08-24T22:30:26.752Z,62.10
2022-08-24T22:32:55.106Z,62.14
2022-08-24T22:35:23.485Z,62.15
2022-08-24T22:37:52.127Z,62.29
2022-08-24T22:40:20.441Z,62.35
2022-08-24T22:42:48.210Z,62.62
2022-08-24T22:45:17.203Z,62.52
2022-08-24T22:47:45.186Z,62.62
2022-08-24T22:50:13.199Z,62.71
2022-08-24T22:52:41.413Z,62.64
2022-08-24T22:55:10.509Z,62.83
2022-08-24T22:57:38.342Z,62.84
2022-08-24T23:00:10.443Z,62.97
2022-08-24T23:02:44.107Z,63.01
2022-08-24T23:05:12.216Z,63.16
2022-08-24T23:07:40.429Z,62.93
2022-08-24T23:10:09.448Z,63.20
2022-08-24T23:12:37.421Z,63.21
2022-08-24T23:15:06.538Z,63.35
2022-08-24T23:17:34.750Z,63.35
2022-08-24T23:20:06.989Z,63.48
2022-08-24T23:22:38.983Z,63.62
2022-08-24T23:25:10.045Z,63.48
2022-08-24T23:27:39.011Z,63.47
2022-08-24T23:30:12.313Z,63.68
2022-08-24T23:32:40.994Z,63.75
2022-08-24T23:35:10.125Z,63.99
2022-08-24T23:37:38.263Z,63.80
2022-08-24T23:40:07.545Z,63.84
2022-08-24T23:42:35.972Z,63.85
2022-08-24T23:45:04.105Z,64.05
2022-08-24T23:47:36.110Z,64.22
2022-08-24T23:50:11.035Z,64.13
2022-08-24T23:52:43.135Z,64.30
2022-08-24T23:55:20.910Z,64.21
2022-08-24T23:57:53.782Z,64.50
